createdAt,value
2017-12-24T00:00:00.635Z,7.90
2017-12-24T00:02:29.027Z,7.90
2017-12-24T00:04:57.314Z,7.90
2017-12-24T00:07:25.576Z,8.00
2017-12-24T00:09:53.874Z,8.00
2017-12-24T00:12:22.144Z,7.90
2017-12-24T00:14:50.442Z,7.90
2017-12-24T00:17:18.522Z,7.90
2017-12-24T00:19:46.049Z,7.90
2017-12-24T00:22:14.347Z,7.90
2017-12-24T00:24:41.874Z,7.90
2017-12-24T00:27:09.391Z,7.90
2017-12-24T00:29:36.918Z,7.90
2017-12-24T00:32:04.419Z,7.90
2017-12-24T00:34:31.934Z,7.90
2017-12-24T00:36:59.442Z,7.90
2017-12-24T00:39:26.959Z,8.00
2017-12-24T00:41:54.462Z,8.00
2017-12-24T00:44:22.052Z,8.00
2017-12-24T00:46:50.318Z,8.00
2017-12-24T00:49:17.878Z,8.00
2017-12-24T00:51:45.378Z,8.00
2017-12-24T00:54:12.882Z,8.00
2017-12-24T00:56:40.405Z,8.00
2017-12-24T00:59:07.902Z,7.90
2017-12-24T01:01:35.430Z,8.00
2017-12-24T01:04:02.939Z,7.90
2017-12-24T01:06:31.256Z,7.90
2017-12-24T01:08:58.753Z,7.90
2017-12-24T01:11:26.273Z,7.90
2017-12-24T01:13:53.774Z,7.90
2017-12-24T01:16:21.306Z,7.90
2017-12-24T01:18:48.809Z,7.90
2017-12-24T01:21:16.314Z,7.90
2017-12-24T01:23:43.830Z,7.90
2017-12-24T01:26:12.112Z,7.90
2017-12-24T01:28:40.407Z,7.90
2017-12-24T01:31:07.904Z,7.80
2017-12-24T01:33:35.427Z,7.90
2017-12-24T01:36:02.928Z,7.90
2017-12-24T01:38:30.506Z,7.90
2017-12-24T01:40:58.013Z,7.80
2017-12-24T01:43:25.527Z,7.80
2017-12-24T01:45:53.046Z,7.80
2017-12-24T01:48:20.546Z,7.80
2017-12-24T01:50:48.067Z,7.80
2017-12-24T01:53:15.570Z,7.80
2017-12-24T01:55:43.087Z,7.80
2017-12-24T01:58:10.602Z,7.80
2017-12-24T02:00:38.903Z,7.70
2017-12-24T02:03:06.404Z,7.80
2017-12-24T02:05:33.914Z,7.70
2017-12-24T02:08:01.422Z,7.70
2017-12-24T02:10:28.933Z,7.70
2017-12-24T02:12:56.430Z,7.70
2017-12-24T02:15:24.714Z,7.70
2017-12-24T02:17:52.214Z,7.60
2017-12-24T02:20:20.495Z,7.60
2017-12-24T02:22:48.002Z,7.60
2017-12-24T02:25:15.526Z,7.60
2017-12-24T02:27:43.038Z,7.60
2017-12-24T02:30:10.542Z,7.70
2017-12-24T02:32:38.070Z,7.70
2017-12-24T02:35:06.335Z,7.60
2017-12-24T02:37:33.850Z,7.60
2017-12-24T02:40:01.379Z,7.70
2017-12-24T02:42:29.658Z,7.60
2017-12-24T02:44:57.931Z,7.60
2017-12-24T02:47:26.218Z,7.60
2017-12-24T02:49:53.721Z,7.60
2017-12-24T02:52:21.242Z,7.60
2017-12-24T02:54:48.742Z,7.60
2017-12-24T02:57:16.282Z,7.60
2017-12-24T02:59:43.777Z,7.60
2017-12-24T03:02:13.199Z,7.60
2017-12-24T03:04:41.466Z,7.60
2017-12-24T03:07:08.988Z,7.60
2017-12-24T03:09:36.501Z,7.60
2017-12-24T03:12:04.786Z,7.60
2017-12-24T03:14:32.286Z,7.60
2017-12-24T03:16:59.811Z,7.60
2017-12-24T03:19:27.327Z,7.60
2017-12-24T03:21:54.825Z,7.60
2017-12-24T03:24:22.386Z,7.60
2017-12-24T03:26:49.890Z,7.50
2017-12-24T03:29:17.411Z,7.50
2017-12-24T03:31:44.924Z,7.50
2017-12-24T03:34:12.498Z,7.50
2017-12-24T03:36:39.993Z,7.50
2017-12-24T03:39:07.505Z,7.50
2017-12-24T03:41:35.007Z,7.50
2017-12-24T03:44:02.522Z,7.50
2017-12-24T03:46:30.022Z,7.50
2017-12-24T03:48:57.546Z,7.50
2017-12-24T03:51:25.050Z,7.50
2017-12-24T03:53:52.568Z,7.40
2017-12-24T03:56:20.073Z,7.40
2017-12-24T03:58:47.590Z,7.40
2017-12-24T04:01:15.099Z,7.40
2017-12-24T04:03:42.614Z,7.40
2017-12-24T04:06:10.886Z,7.40
2017-12-24T04:08:39.222Z,7.30
2017-12-24T04:11:06.719Z,7.30
2017-12-24T04:13:34.218Z,7.30
2017-12-24T04:16:01.734Z,7.30
2017-12-24T04:18:29.242Z,7.30
2017-12-24T04:20:56.758Z,7.30
2017-12-24T04:23:25.031Z,7.30
2017-12-24T04:25:53.314Z,7.30
2017-12-24T04:28:21.591Z,7.30
2017-12-24T04:30:49.875Z,7.30
2017-12-24T04:33:18.142Z,7.30
2017-12-24T04:35:46.429Z,7.30
2017-12-24T04:38:14.699Z,7.30
2017-12-24T04:40:42.975Z,7.30
2017-12-24T04:43:11.254Z,7.30
2017-12-24T04:45:39.514Z,7.30
2017-12-24T04:48:07.026Z,7.30
2017-12-24T04:50:34.530Z,7.30
2017-12-24T04:53:02.050Z,7.30
2017-12-24T04:55:29.550Z,7.30
2017-12-24T04:57:57.075Z,7.30
2017-12-24T05:00:24.591Z,7.30
2017-12-24T05:02:52.874Z,7.30
2017-12-24T05:05:20.374Z,7.30
2017-12-24T05:07:47.900Z,7.30
2017-12-24T05:10:15.407Z,7.30
2017-12-24T05:12:42.922Z,7.30
2017-12-24T05:15:10.434Z,7.30
2017-12-24T05:17:37.957Z,7.30
2017-12-24T05:20:05.459Z,7.30
2017-12-24T05:22:32.986Z,7.30
2017-12-24T05:25:00.499Z,7.30
2017-12-24T05:27:28.037Z,7.30
2017-12-24T05:29:55.544Z,7.30
2017-12-24T05:32:23.075Z,7.30
2017-12-24T05:34:50.588Z,7.30
2017-12-24T05:37:18.101Z,7.30
2017-12-24T05:39:45.620Z,7.30
2017-12-24T05:42:13.126Z,7.30
2017-12-24T05:44:40.643Z,7.30
2017-12-24T05:47:08.162Z,7.30
2017-12-24T05:49:35.679Z,7.30
2017-12-24T05:52:03.945Z,7.30
2017-12-24T05:54:31.458Z,7.30
2017-12-24T05:56:59.013Z,7.30
2017-12-24T05:59:26.530Z,7.30
2017-12-24T06:01:54.813Z,7.30
2017-12-24T06:04:23.106Z,7.30
2017-12-24T06:06:50.611Z,7.30
2017-12-24T06:09:18.142Z,7.30
2017-12-24T06:11:45.650Z,7.30
2017-12-24T06:14:13.173Z,7.30
2017-12-24T06:16:40.675Z,7.30
2017-12-24T06:19:08.195Z,7.30
2017-12-24T06:21:35.703Z,7.30
2017-12-24T06:24:03.986Z,7.30
2017-12-24T06:26:32.262Z,7.30
2017-12-24T06:29:00.546Z,7.30
2017-12-24T06:31:28.056Z,7.30
2017-12-24T06:33:55.591Z,7.30
2017-12-24T06:36:23.090Z,7.30
2017-12-24T06:38:50.636Z,7.30
2017-12-24T06:41:18.142Z,7.30
2017-12-24T06:43:45.688Z,7.30
2017-12-24T06:46:13.982Z,7.30
2017-12-24T06:48:41.534Z,7.30
2017-12-24T06:51:09.828Z,7.30
2017-12-24T06:53:37.345Z,7.20
2017-12-24T06:56:04.862Z,7.20
2017-12-24T06:58:33.127Z,7.20
2017-12-24T07:01:00.636Z,7.20
2017-12-24T07:03:28.138Z,7.20
2017-12-24T07:05:55.666Z,7.20
2017-12-24T07:08:23.217Z,7.20
2017-12-24T07:10:50.702Z,7.20
2017-12-24T07:13:18.966Z,7.30
2017-12-24T07:15:47.250Z,7.30
2017-12-24T07:18:15.522Z,7.30
2017-12-24T07:20:43.783Z,7.30
2017-12-24T07:23:11.317Z,7.30
2017-12-24T07:25:38.809Z,7.30
2017-12-24T07:28:06.328Z,7.30
2017-12-24T07:30:33.830Z,7.30
2017-12-24T07:33:02.110Z,7.20
2017-12-24T07:35:30.378Z,7.20
2017-12-24T07:37:57.898Z,7.20
2017-12-24T07:40:25.395Z,7.20
2017-12-24T07:42:52.906Z,7.20
2017-12-24T07:45:20.404Z,7.20
2017-12-24T07:47:47.917Z,7.20
2017-12-24T07:50:15.422Z,7.20
2017-12-24T07:52:42.937Z,7.20
2017-12-24T07:55:10.442Z,7.20
2017-12-24T07:57:38.002Z,7.20
2017-12-24T08:00:05.494Z,7.20
2017-12-24T08:02:33.002Z,7.20
2017-12-24T08:05:00.531Z,7.20
2017-12-24T08:07:28.038Z,7.20
2017-12-24T08:09:56.342Z,7.30
2017-12-24T08:12:23.880Z,7.20
2017-12-24T08:14:51.477Z,7.30
2017-12-24T08:17:18.983Z,7.30
2017-12-24T08:19:46.507Z,7.30
2017-12-24T08:22:14.003Z,7.30
2017-12-24T08:24:41.514Z,7.30
2017-12-24T08:27:09.042Z,7.30
2017-12-24T08:29:37.318Z,7.30
2017-12-24T08:32:04.810Z,7.30
2017-12-24T08:34:32.323Z,7.30
2017-12-24T08:36:59.826Z,7.30
2017-12-24T08:39:27.347Z,7.30
2017-12-24T08:41:54.839Z,7.30
2017-12-24T08:44:22.363Z,7.30
2017-12-24T08:46:49.858Z,7.40
2017-12-24T08:49:17.349Z,7.40
2017-12-24T08:51:44.865Z,7.40
2017-12-24T08:54:13.139Z,7.40
2017-12-24T08:56:41.467Z,7.50
2017-12-24T08:59:09.015Z,7.40
2017-12-24T09:01:36.634Z,7.50
2017-12-24T09:04:04.146Z,7.50
2017-12-24T09:06:31.664Z,7.50
2017-12-24T09:08:59.167Z,7.60
2017-12-24T09:11:26.686Z,7.60
2017-12-24T09:13:54.229Z,7.60
2017-12-24T09:16:22.511Z,7.70
2017-12-24T09:18:50.782Z,7.70
2017-12-24T09:21:19.066Z,7.80
2017-12-24T09:23:46.592Z,7.80
2017-12-24T09:26:14.120Z,7.80
2017-12-24T09:28:41.623Z,7.80
2017-12-24T09:31:09.135Z,7.90
2017-12-24T09:33:36.642Z,7.80
2017-12-24T09:36:07.027Z,7.90
2017-12-24T09:38:34.550Z,7.90
2017-12-24T09:41:02.828Z,7.90
2017-12-24T09:43:31.090Z,7.90
2017-12-24T09:45:59.377Z,7.90
2017-12-24T09:48:27.643Z,8.00
2017-12-24T09:50:55.930Z,8.00
2017-12-24T09:53:24.193Z,8.00
2017-12-24T09:55:51.706Z,8.00
2017-12-24T09:58:19.215Z,8.10
2017-12-24T10:00:47.499Z,8.20
2017-12-24T10:03:15.778Z,8.20
2017-12-24T10:05:44.050Z,8.30
2017-12-24T10:08:11.554Z,8.20
2017-12-24T10:10:39.074Z,8.30
2017-12-24T10:13:07.346Z,8.40
2017-12-24T10:15:35.633Z,8.50
2017-12-24T10:18:03.903Z,8.50
2017-12-24T10:20:32.166Z,8.50
2017-12-24T10:22:59.672Z,8.50
2017-12-24T10:25:27.169Z,8.50
2017-12-24T10:27:54.679Z,8.50
2017-12-24T10:30:22.183Z,8.60
2017-12-24T10:32:49.698Z,8.60
2017-12-24T10:35:17.215Z,8.60
2017-12-24T10:37:44.739Z,8.60
2017-12-24T10:40:13.008Z,8.70
2017-12-24T10:42:40.538Z,8.70
2017-12-24T10:45:08.802Z,8.70
2017-12-24T10:47:36.326Z,8.70
2017-12-24T10:50:03.831Z,8.80
2017-12-24T10:52:31.344Z,8.80
2017-12-24T10:54:59.614Z,8.80
2017-12-24T10:57:27.130Z,8.80
2017-12-24T10:59:54.635Z,8.90
2017-12-24T11:02:22.175Z,8.90
2017-12-24T11:04:49.674Z,8.90
2017-12-24T11:07:17.183Z,9.00
2017-12-24T11:09:44.702Z,9.00
2017-12-24T11:12:12.974Z,9.00
2017-12-24T11:14:40.486Z,9.00
2017-12-24T11:17:07.989Z,9.00
2017-12-24T11:19:35.508Z,8.90
2017-12-24T11:22:03.010Z,8.90
2017-12-24T11:24:30.530Z,8.90
2017-12-24T11:26:58.039Z,8.90
2017-12-24T11:29:26.317Z,8.90
2017-12-24T11:31:54.578Z,8.90
2017-12-24T11:34:22.098Z,8.90
2017-12-24T11:36:49.610Z,8.80
2017-12-24T11:39:17.153Z,8.80
2017-12-24T11:41:44.654Z,8.80
2017-12-24T11:44:12.174Z,8.80
2017-12-24T11:46:39.671Z,8.80
2017-12-24T11:49:07.169Z,8.80
2017-12-24T11:51:34.689Z,8.90
2017-12-24T11:54:02.178Z,8.90
2017-12-24T11:56:29.691Z,8.90
2017-12-24T11:58:57.964Z,8.90
2017-12-24T12:01:26.246Z,8.90
2017-12-24T12:03:53.750Z,8.90
2017-12-24T12:06:21.270Z,8.90
2017-12-24T12:08:48.766Z,8.90
2017-12-24T12:11:16.331Z,8.90
2017-12-24T12:13:43.826Z,8.90
2017-12-24T12:16:11.334Z,8.90
2017-12-24T12:18:38.866Z,8.90
2017-12-24T12:21:06.374Z,8.90
2017-12-24T12:23:33.973Z,8.90
2017-12-24T12:26:01.483Z,8.90
2017-12-24T12:28:29.002Z,8.90
2017-12-24T12:30:57.263Z,8.90
2017-12-24T12:33:25.566Z,8.90
2017-12-24T12:35:53.074Z,8.90
2017-12-24T12:38:20.649Z,8.90
2017-12-24T12:40:48.159Z,8.90
2017-12-24T12:43:15.670Z,8.90
2017-12-24T12:45:43.170Z,8.90
2017-12-24T12:48:10.718Z,8.90
2017-12-24T12:50:38.227Z,8.90
2017-12-24T12:53:05.735Z,8.90
2017-12-24T12:55:33.259Z,8.90
2017-12-24T12:58:00.754Z,8.90
2017-12-24T13:00:28.283Z,8.90
2017-12-24T13:02:55.773Z,8.90
2017-12-24T13:05:23.290Z,8.90
2017-12-24T13:07:50.789Z,8.90
2017-12-24T13:10:18.302Z,8.90
2017-12-24T13:12:45.816Z,8.90
2017-12-24T13:15:13.345Z,8.90
2017-12-24T13:17:41.615Z,8.90
2017-12-24T13:20:09.930Z,8.90
2017-12-24T13:22:37.438Z,8.90
2017-12-24T13:25:05.706Z,9.00
2017-12-24T13:27:33.224Z,9.00
2017-12-24T13:30:00.726Z,9.00
2017-12-24T13:32:28.250Z,9.00
2017-12-24T13:34:56.156Z,9.00
2017-12-24T13:37:23.670Z,9.00
2017-12-24T13:39:51.179Z,9.00
2017-12-24T13:42:18.692Z,9.00
2017-12-24T13:44:46.194Z,8.90
2017-12-24T13:47:13.713Z,8.90
2017-12-24T13:49:41.219Z,8.90
2017-12-24T13:52:08.734Z,8.90
2017-12-24T13:54:36.231Z,8.90
2017-12-24T13:57:03.749Z,8.90
2017-12-24T13:59:31.261Z,8.90
2017-12-24T14:01:58.769Z,8.80
2017-12-24T14:04:26.265Z,8.90
2017-12-24T14:06:53.786Z,8.80
2017-12-24T14:09:21.286Z,8.80
2017-12-24T14:11:48.806Z,8.70
2017-12-24T14:14:16.307Z,8.70
2017-12-24T14:16:43.866Z,8.70
2017-12-24T14:19:11.363Z,8.70
2017-12-24T14:21:38.875Z,8.70
2017-12-24T14:24:06.386Z,8.60
2017-12-24T14:26:33.879Z,8.60
2017-12-24T14:29:01.394Z,8.60
2017-12-24T14:31:28.882Z,8.60
2017-12-24T14:33:56.414Z,8.60
2017-12-24T14:36:23.934Z,8.50
2017-12-24T14:38:51.458Z,8.50
2017-12-24T14:41:18.953Z,8.50
2017-12-24T14:43:46.478Z,8.40
2017-12-24T14:46:13.983Z,8.40
2017-12-24T14:48:42.266Z,8.40
2017-12-24T14:51:10.539Z,8.30
2017-12-24T14:53:38.830Z,8.30
2017-12-24T14:56:07.705Z,8.30
2017-12-24T14:58:35.235Z,8.30
2017-12-24T15:01:02.758Z,8.20
2017-12-24T15:03:30.293Z,8.20
2017-12-24T15:05:57.798Z,8.20
2017-12-24T15:08:25.302Z,8.20
2017-12-24T15:10:53.593Z,8.10
2017-12-24T15:13:21.110Z,8.10
2017-12-24T15:15:48.621Z,8.10
2017-12-24T15:18:16.131Z,8.00
2017-12-24T15:20:43.650Z,8.00
2017-12-24T15:23:11.146Z,7.90
2017-12-24T15:25:38.671Z,7.90
2017-12-24T15:28:06.162Z,7.90
2017-12-24T15:30:33.690Z,7.80
2017-12-24T15:33:01.196Z,7.80
2017-12-24T15:35:28.718Z,7.80
2017-12-24T15:37:56.223Z,7.70
2017-12-24T15:40:23.736Z,7.70
2017-12-24T15:42:51.242Z,7.60
2017-12-24T15:45:19.530Z,7.50
2017-12-24T15:47:47.790Z,7.50
2017-12-24T15:50:15.319Z,7.50
2017-12-24T15:52:42.822Z,7.50
2017-12-24T15:55:11.086Z,7.40
2017-12-24T15:57:38.594Z,7.40
2017-12-24T16:00:06.098Z,7.30
2017-12-24T16:02:33.622Z,7.30
2017-12-24T16:05:01.118Z,7.30
2017-12-24T16:07:28.634Z,7.20
2017-12-24T16:09:56.135Z,7.20
2017-12-24T16:12:23.662Z,7.20
2017-12-24T16:14:51.159Z,7.20
2017-12-24T16:17:19.299Z,7.10
2017-12-24T16:19:46.794Z,7.10
2017-12-24T16:22:14.290Z,7.10
2017-12-24T16:24:41.814Z,7.00
2017-12-24T16:27:10.078Z,6.90
2017-12-24T16:29:37.641Z,6.90
2017-12-24T16:32:05.147Z,6.90
2017-12-24T16:34:32.658Z,6.90
2017-12-24T16:37:00.939Z,6.80
2017-12-24T16:39:28.493Z,6.80
2017-12-24T16:41:56.760Z,6.70
2017-12-24T16:44:24.258Z,6.70
2017-12-24T16:46:52.558Z,6.70
2017-12-24T16:49:20.064Z,6.70
2017-12-24T16:51:47.589Z,6.70
2017-12-24T16:54:15.090Z,6.60
2017-12-24T16:56:42.604Z,6.60
2017-12-24T16:59:10.109Z,6.60
2017-12-24T17:01:37.627Z,6.60
2017-12-24T17:04:05.129Z,6.60
2017-12-24T17:06:32.647Z,6.60
2017-12-24T17:09:00.142Z,6.50
2017-12-24T17:11:27.669Z,6.50
2017-12-24T17:13:55.170Z,6.50
2017-12-24T17:16:23.549Z,6.50
2017-12-24T17:18:51.006Z,6.50
2017-12-24T17:21:19.274Z,6.50
2017-12-24T17:23:46.810Z,6.50
2017-12-24T17:26:14.307Z,6.50
2017-12-24T17:28:42.582Z,6.50
2017-12-24T17:31:10.846Z,6.50
2017-12-24T17:33:38.362Z,6.50
2017-12-24T17:36:05.866Z,6.50
2017-12-24T17:38:33.378Z,6.50
2017-12-24T17:41:00.882Z,6.50
2017-12-24T17:43:28.416Z,6.60
2017-12-24T17:45:55.917Z,6.50
2017-12-24T17:48:24.198Z,6.60
2017-12-24T17:50:52.466Z,6.50
2017-12-24T17:53:20.750Z,6.50
2017-12-24T17:55:48.254Z,6.50
2017-12-24T17:58:16.534Z,6.50
2017-12-24T18:00:44.026Z,6.50
2017-12-24T18:03:12.327Z,6.50
2017-12-24T18:05:39.834Z,6.50
2017-12-24T18:08:07.410Z,6.50
2017-12-24T18:10:34.923Z,6.50
2017-12-24T18:13:02.439Z,6.50
2017-12-24T18:15:29.960Z,6.50
2017-12-24T18:17:57.456Z,6.50
2017-12-24T18:20:24.978Z,6.50
2017-12-24T18:22:52.478Z,6.50
2017-12-24T18:25:20.032Z,6.40
2017-12-24T18:27:47.530Z,6.40
2017-12-24T18:30:15.053Z,6.40
2017-12-24T18:32:42.568Z,6.40
2017-12-24T18:35:10.071Z,6.40
2017-12-24T18:37:37.590Z,6.40
2017-12-24T18:40:05.107Z,6.40
2017-12-24T18:42:32.632Z,6.40
2017-12-24T18:45:00.133Z,6.30
2017-12-24T18:47:27.652Z,6.30
2017-12-24T18:49:55.154Z,6.30
2017-12-24T18:52:22.675Z,6.30
2017-12-24T18:54:50.175Z,6.20
2017-12-24T18:57:17.698Z,6.20
2017-12-24T18:59:45.206Z,6.20
2017-12-24T19:02:12.765Z,6.20
2017-12-24T19:04:40.278Z,6.20
2017-12-24T19:07:07.783Z,6.10
2017-12-24T19:09:35.310Z,6.10
2017-12-24T19:12:03.583Z,6.10
2017-12-24T19:14:31.875Z,6.10
2017-12-24T19:16:59.373Z,6.10
2017-12-24T19:19:26.885Z,6.10
2017-12-24T19:21:55.146Z,6.10
2017-12-24T19:24:22.687Z,6.10
2017-12-24T19:26:50.240Z,6.10
2017-12-24T19:29:17.771Z,6.10
2017-12-24T19:31:45.270Z,6.10
2017-12-24T19:34:12.774Z,6.20
2017-12-24T19:36:40.332Z,6.20
2017-12-24T19:39:07.868Z,6.20
2017-12-24T19:41:36.150Z,6.20
2017-12-24T19:44:03.695Z,6.10
2017-12-24T19:46:31.218Z,6.20
2017-12-24T19:48:58.728Z,6.20
2017-12-24T19:51:27.017Z,6.20
2017-12-24T19:53:54.572Z,6.20
2017-12-24T19:56:22.859Z,6.20
2017-12-24T19:58:50.410Z,6.20
2017-12-24T20:01:18.780Z,6.20
2017-12-24T20:03:47.061Z,6.20
2017-12-24T20:06:15.340Z,6.20
2017-12-24T20:08:43.668Z,6.20
2017-12-24T20:11:11.213Z,6.10
2017-12-24T20:13:38.733Z,6.20
2017-12-24T20:16:07.036Z,6.20
2017-12-24T20:18:34.593Z,6.10
2017-12-24T20:21:02.103Z,6.20
2017-12-24T20:23:29.696Z,6.10
2017-12-24T20:25:58.008Z,6.10
2017-12-24T20:28:25.551Z,6.10
2017-12-24T20:30:53.113Z,6.10
2017-12-24T20:33:20.657Z,6.10
2017-12-24T20:35:49.014Z,6.10
2017-12-24T20:38:16.539Z,6.00
2017-12-24T20:40:44.095Z,6.10
2017-12-24T20:43:11.645Z,6.00
2017-12-24T20:45:39.226Z,6.00
2017-12-24T20:48:07.554Z,6.00
2017-12-24T20:50:35.079Z,6.00
2017-12-24T20:53:02.633Z,6.00
2017-12-24T20:55:30.218Z,6.00
2017-12-24T20:57:58.544Z,6.00
2017-12-24T21:00:26.110Z,6.00
2017-12-24T21:02:53.652Z,6.00
2017-12-24T21:05:21.214Z,6.00
2017-12-24T21:07:48.776Z,6.00
2017-12-24T21:10:16.336Z,6.00
2017-12-24T21:12:43.894Z,6.00
2017-12-24T21:15:11.470Z,6.00
2017-12-24T21:17:38.974Z,6.00
2017-12-24T21:20:07.291Z,5.90
2017-12-24T21:22:34.815Z,5.90
2017-12-24T21:25:03.132Z,5.90
2017-12-24T21:27:30.705Z,5.90
2017-12-24T21:29:58.256Z,5.90
2017-12-24T21:32:25.819Z,5.90
2017-12-24T21:34:53.374Z,5.90
2017-12-24T21:37:20.953Z,5.90
2017-12-24T21:39:48.458Z,5.90
2017-12-24T21:42:16.802Z,5.90
2017-12-24T21:44:44.371Z,5.90
2017-12-24T21:47:11.948Z,5.90
2017-12-24T21:49:40.276Z,5.90
2017-12-24T21:52:07.834Z,5.90
2017-12-24T21:54:35.390Z,5.90
2017-12-24T21:57:02.892Z,5.80
2017-12-24T21:59:30.452Z,5.80
2017-12-24T22:01:58.004Z,5.80
2017-12-24T22:04:25.577Z,5.80
2017-12-24T22:06:53.136Z,5.80
2017-12-24T22:09:20.703Z,5.80
2017-12-24T22:11:48.978Z,5.70
2017-12-24T22:14:17.316Z,5.70
2017-12-24T22:16:44.876Z,5.70
2017-12-24T22:19:12.394Z,5.70
2017-12-24T22:21:39.958Z,5.70
2017-12-24T22:24:07.531Z,5.70
2017-12-24T22:26:35.109Z,5.70
2017-12-24T22:29:02.665Z,5.70
2017-12-24T22:31:30.187Z,5.70
2017-12-24T22:33:58.519Z,5.70
2017-12-24T22:36:26.089Z,5.60
2017-12-24T22:38:53.641Z,5.70
2017-12-24T22:41:21.204Z,5.60
2017-12-24T22:43:48.748Z,5.60
2017-12-24T22:46:16.269Z,5.60
2017-12-24T22:48:44.594Z,5.60
2017-12-24T22:51:12.163Z,5.60
2017-12-24T22:53:39.712Z,5.60
2017-12-24T22:56:07.280Z,5.60
2017-12-24T22:58:34.834Z,5.60
2017-12-24T23:01:02.409Z,5.60
2017-12-24T23:03:29.965Z,5.50
2017-12-24T23:05:57.491Z,5.50
2017-12-24T23:08:24.994Z,5.50
2017-12-24T23:10:52.555Z,5.50
2017-12-24T23:13:20.107Z,5.50
2017-12-24T23:15:47.609Z,5.40
2017-12-24T23:18:15.193Z,5.40
2017-12-24T23:20:42.695Z,5.40
2017-12-24T23:23:10.256Z,5.40
2017-12-24T23:25:37.759Z,5.40
2017-12-24T23:28:05.328Z,5.30
2017-12-24T23:30:32.833Z,5.30
2017-12-24T23:33:00.400Z,5.30
2017-12-24T23:35:27.955Z,5.30
2017-12-24T23:37:55.521Z,5.30
2017-12-24T23:40:23.074Z,5.30
2017-12-24T23:42:50.636Z,5.20
2017-12-24T23:45:18.181Z,5.20
2017-12-24T23:47:45.708Z,5.20
2017-12-24T23:50:13.258Z,5.20
2017-12-24T23:52:40.816Z,5.20
2017-12-24T23:55:08.359Z,5.20
2017-12-24T23:57:36.655Z,5.20
